Corsa — V2PZ2 — position and weather

sailwx.info

Track history (hours):
 
Tides and Currents Weather Stations Pressure Air Temp Water Temp Dewpoint Dewpoint Depression Visibility Wind Speed Wind Dir Waves Ship Positions

Corsa

Last reported at 2015-Aug-21 05:26 UTC. Time now 2015-Sep-02 02:30 UTC.
Position N 37°35' E 026°38'.
Warning: this ship's position is 11 days out of date.

Length 101 m; draft 6.2 m.

Type: Cargo ship. MMSI: 304624000.

Date/timePositionNaut miles runAvg speedWind from/ knotsBaromVisibWave heightAir tempDewpointWater temp
2015-Aug-21 05:26N 37°35' E 026°38'1010.9
2015-Aug-21 04:32N 37°27' E 026°45'1211.1
2015-Aug-21 03:30N 37°17' E 026°53'1111.4
2015-Aug-21 02:33N 37°08' E 026°59'1110.7
2015-Aug-21 01:30N 36°57' E 027°04'2 0.8
2015-Aug-20 23:18N 36°56' E 027°02'0 0.1
2015-Aug-20 22:31N 36°56' E 027°02'5 5.3
2015-Aug-20 21:33N 36°58' E 027°08'18 8.9
2015-Aug-20 19:32N 36°43' E 027°20'1110.5
2015-Aug-20 18:29N 36°36' E 027°31'1111.4
2015-Aug-20 17:33N 36°31' E 027°43'1110.9
2015-Aug-20 16:33N 36°29' E 027°56'24811.6
2015-Aug-19 19:14N 34°39' E 032°30'711.0
2015-Aug-19 18:33N 34°36' E 032°38'1010.3
2015-Aug-19 17:33N 34°33' E 032°50'1010.0
2015-Aug-19 16:33N 34°32' E 033°02'7 7.3
2015-Aug-19 15:33N 34°39' E 033°01'0 0.2
2015-Aug-19 14:32N 34°39' E 033°01'0 0.0
2015-Aug-19 13:32N 34°39' E 033°01'0 0.0
2015-Aug-19 12:32N 34°39' E 033°01'0 0.0
2015-Aug-19 11:32N 34°39' E 033°01'0 0.0
2015-Aug-19 10:32N 34°39' E 033°01'0 0.0
2015-Aug-19 09:20N 34°39' E 033°01'0 0.0
2015-Aug-19 08:32N 34°39' E 033°01'0 0.0
2015-Aug-19 07:32N 34°39' E 033°01'0 0.0
2015-Aug-19 06:32N 34°39' E 033°01'0 0.0
2015-Aug-19 05:32N 34°39' E 033°01'0 0.0
2015-Aug-19 04:32N 34°39' E 033°01'1 0.5
2015-Aug-19 03:33N 34°39' E 033°02'3 3.2
2015-Aug-19 02:33N 34°36' E 033°04'6 5.8
2015-Aug-19 01:33N 34°31' E 033°01'7 7.0
2015-Aug-19 00:32N 34°32' E 032°53'10 9.5
2015-Aug-18 23:32N 34°35' E 032°42'9 9.0
2015-Aug-18 22:31N 34°38' E 032°31'218 9.8
2015-Aug-18 00:23N 36°20' E 028°34'2011.1
2015-Aug-17 22:33N 36°29' E 028°12'1110.9
2015-Aug-17 21:33N 36°30' E 027°58'1110.7
2015-Aug-17 20:33N 36°31' E 027°45'1111.0
2015-Aug-17 19:33N 36°35' E 027°33'25 8.3
2015-Aug-17 16:34N 36°57' E 027°16'1110.1
2015-Aug-17 15:28N 37°05' E 027°07'1111.1
2015-Aug-17 14:30N 37°13' E 026°59'1211.2
2015-Aug-17 13:24N 37°23' E 026°49'1011.3
2015-Aug-17 12:33N 37°31' E 026°43'1210.9
2015-Aug-17 11:30N 37°40' E 026°34'12711.3
2015-Aug-17 00:15N 39°12' E 024°42'1012.1
2015-Aug-16 23:24N 39°19' E 024°33'7 0.2
2015-Aug-15 17:34N 39°24' E 024°27'1212.0
2015-Aug-15 16:34N 39°15' E 024°38'1212.2
2015-Aug-15 15:33N 39°06' E 024°48'1211.8
2015-Aug-15 14:34N 38°57' E 024°58'10012.4
2015-Aug-15 06:31N 37°45' E 026°27'2412.3
2015-Aug-15 04:32N 37°27' E 026°46'1312.2
2015-Aug-15 03:29N 37°17' E 026°56'2412.2
2015-Aug-15 01:33N 36°57' E 027°14'29 9.2
2015-Aug-14 22:22N 36°34' E 027°36'1112.5
2015-Aug-14 21:29N 36°30' E 027°48'255 9.9
2015-Aug-13 19:33N 34°38' E 032°31'1111.1
2015-Aug-13 18:34N 34°34' E 032°44'1110.9
2015-Aug-13 17:34N 34°31' E 032°56'8 8.3
2015-Aug-13 16:34N 34°37' E 033°04'3 3.4
2015-Aug-13 15:33N 34°40' E 033°04'0 0.0
2015-Aug-13 14:30N 34°40' E 033°04'0 0.0
2015-Aug-13 13:33N 34°40' E 033°04'0 0.0
2015-Aug-13 12:33N 34°40' E 033°04'0 0.0
2015-Aug-13 11:33N 34°40' E 033°04'0 0.0
2015-Aug-13 10:33N 34°40' E 033°04'0 0.0
2015-Aug-13 09:33N 34°40' E 033°04'0 0.0
2015-Aug-13 08:33N 34°40' E 033°04'0 0.0
2015-Aug-13 07:33N 34°40' E 033°04'0 0.0
2015-Aug-13 06:33N 34°40' E 033°04'0 0.0
2015-Aug-13 05:33N 34°40' E 033°04'0 0.0
2015-Aug-13 04:33N 34°40' E 033°04'0 0.0
2015-Aug-13 03:33N 34°40' E 033°04'0 0.0
2015-Aug-13 02:33N 34°40' E 033°04'0 0.0
2015-Aug-13 01:33N 34°40' E 033°04'0 0.0
2015-Aug-13 00:33N 34°40' E 033°04'0 0.0
2015-Aug-12 23:33N 34°40' E 033°04'0 0.0
2015-Aug-12 22:33N 34°40' E 033°04'0 0.0
2015-Aug-12 21:33N 34°40' E 033°04'0 0.1
2015-Aug-12 20:33N 34°40' E 033°04'0 0.0
2015-Aug-12 19:33N 34°40' E 033°04'0 0.0
2015-Aug-12 18:33N 34°40' E 033°04'0 0.0
2015-Aug-12 17:33N 34°40' E 033°04'0 0.0
2015-Aug-12 16:33N 34°40' E 033°04'0 0.0
2015-Aug-12 15:33N 34°40' E 033°04'0 0.0
2015-Aug-12 14:33N 34°40' E 033°04'0 0.0
2015-Aug-12 13:33N 34°40' E 033°04'0 0.0
2015-Aug-12 12:33N 34°40' E 033°04'0 0.0
2015-Aug-12 11:33N 34°40' E 033°04'0 0.0
2015-Aug-12 10:33N 34°40' E 033°04'0 0.0
2015-Aug-12 09:33N 34°40' E 033°04'0 0.0
2015-Aug-12 08:33N 34°40' E 033°04'0 0.0
2015-Aug-12 07:30N 34°40' E 033°04'0 0.0
2015-Aug-12 06:33N 34°40' E 033°04'0 0.0
2015-Aug-12 05:33N 34°40' E 033°04'0 0.0
2015-Aug-12 04:33N 34°40' E 033°04'0 0.0
2015-Aug-12 03:33N 34°40' E 033°04'0 0.0
2015-Aug-12 02:33N 34°40' E 033°04'0 0.0
2015-Aug-12 01:30N 34°40' E 033°04'0 0.0
2015-Aug-12 00:33N 34°40' E 033°04'0 0.0
2015-Aug-11 23:30N 34°40' E 033°04'0 0.0
2015-Aug-11 22:33N 34°40' E 033°04'0 0.0
2015-Aug-11 21:33N 34°40' E 033°04'0 0.0
2015-Aug-11 20:33N 34°40' E 033°04'0 0.0
2015-Aug-11 19:33N 34°40' E 033°04'0 0.0
2015-Aug-11 18:33N 34°40' E 033°04'0 0.0
2015-Aug-11 17:33N 34°40' E 033°04'0 0.0
2015-Aug-11 16:30N 34°40' E 033°04'0 0.0
2015-Aug-11 15:33N 34°40' E 033°04'0 0.0
2015-Aug-11 14:33N 34°40' E 033°04'0 0.0
2015-Aug-11 13:33N 34°40' E 033°04'0 0.0
2015-Aug-11 12:33N 34°40' E 033°04'0 0.0
2015-Aug-11 11:30N 34°40' E 033°04'0 0.0
2015-Aug-11 10:33N 34°40' E 033°04'0 0.0
2015-Aug-11 09:33N 34°40' E 033°04'0 0.0
2015-Aug-11 08:33N 34°40' E 033°04'0 0.0
2015-Aug-11 07:33N 34°40' E 033°04'0 0.0
2015-Aug-11 06:33N 34°40' E 033°04'0 0.0
2015-Aug-11 05:30N 34°40' E 033°04'  
Track history (hours):
 
Tides and Currents Weather Stations Pressure Air Temp Water Temp Dewpoint Dewpoint Depression Visibility Wind Speed Wind Dir Waves Ship Positions

Corsa

Last reported at 2015-Aug-21 05:26 UTC. Time now 2015-Sep-02 02:30 UTC.
Position N 37°35' E 026°38'.
Warning: this ship's position is 11 days out of date.

Length 101 m; draft 6.2 m.

Type: Cargo ship. MMSI: 304624000.

Date/timePositionNaut miles runAvg speedWind from/ knotsBaromVisibWave heightAir tempDewpointWater temp
2015-Aug-21 05:26N 37°35' E 026°38'1010.9
2015-Aug-21 04:32N 37°27' E 026°45'1211.1
2015-Aug-21 03:30N 37°17' E 026°53'1111.4
2015-Aug-21 02:33N 37°08' E 026°59'1110.7
2015-Aug-21 01:30N 36°57' E 027°04'2 0.8
2015-Aug-20 23:18N 36°56' E 027°02'0 0.1
2015-Aug-20 22:31N 36°56' E 027°02'5 5.3
2015-Aug-20 21:33N 36°58' E 027°08'18 8.9
2015-Aug-20 19:32N 36°43' E 027°20'1110.5
2015-Aug-20 18:29N 36°36' E 027°31'1111.4
2015-Aug-20 17:33N 36°31' E 027°43'1110.9
2015-Aug-20 16:33N 36°29' E 027°56'24811.6
2015-Aug-19 19:14N 34°39' E 032°30'711.0
2015-Aug-19 18:33N 34°36' E 032°38'1010.3
2015-Aug-19 17:33N 34°33' E 032°50'1010.0
2015-Aug-19 16:33N 34°32' E 033°02'7 7.3
2015-Aug-19 15:33N 34°39' E 033°01'0 0.2
2015-Aug-19 14:32N 34°39' E 033°01'0 0.0
2015-Aug-19 13:32N 34°39' E 033°01'0 0.0
2015-Aug-19 12:32N 34°39' E 033°01'0 0.0
2015-Aug-19 11:32N 34°39' E 033°01'0 0.0
2015-Aug-19 10:32N 34°39' E 033°01'0 0.0
2015-Aug-19 09:20N 34°39' E 033°01'0 0.0
2015-Aug-19 08:32N 34°39' E 033°01'0 0.0
2015-Aug-19 07:32N 34°39' E 033°01'0 0.0
2015-Aug-19 06:32N 34°39' E 033°01'0 0.0
2015-Aug-19 05:32N 34°39' E 033°01'0 0.0
2015-Aug-19 04:32N 34°39' E 033°01'1 0.5
2015-Aug-19 03:33N 34°39' E 033°02'3 3.2
2015-Aug-19 02:33N 34°36' E 033°04'6 5.8
2015-Aug-19 01:33N 34°31' E 033°01'7 7.0
2015-Aug-19 00:32N 34°32' E 032°53'10 9.5
2015-Aug-18 23:32N 34°35' E 032°42'9 9.0
2015-Aug-18 22:31N 34°38' E 032°31'218 9.8
2015-Aug-18 00:23N 36°20' E 028°34'2011.1
2015-Aug-17 22:33N 36°29' E 028°12'1110.9
2015-Aug-17 21:33N 36°30' E 027°58'1110.7
2015-Aug-17 20:33N 36°31' E 027°45'1111.0
2015-Aug-17 19:33N 36°35' E 027°33'25 8.3
2015-Aug-17 16:34N 36°57' E 027°16'1110.1
2015-Aug-17 15:28N 37°05' E 027°07'1111.1
2015-Aug-17 14:30N 37°13' E 026°59'1211.2
2015-Aug-17 13:24N 37°23' E 026°49'1011.3
2015-Aug-17 12:33N 37°31' E 026°43'1210.9
2015-Aug-17 11:30N 37°40' E 026°34'12711.3
2015-Aug-17 00:15N 39°12' E 024°42'1012.1
2015-Aug-16 23:24N 39°19' E 024°33'7 0.2
2015-Aug-15 17:34N 39°24' E 024°27'1212.0
2015-Aug-15 16:34N 39°15' E 024°38'1212.2
2015-Aug-15 15:33N 39°06' E 024°48'1211.8
2015-Aug-15 14:34N 38°57' E 024°58'10012.4
2015-Aug-15 06:31N 37°45' E 026°27'2412.3
2015-Aug-15 04:32N 37°27' E 026°46'1312.2
2015-Aug-15 03:29N 37°17' E 026°56'2412.2
2015-Aug-15 01:33N 36°57' E 027°14'29 9.2
2015-Aug-14 22:22N 36°34' E 027°36'1112.5
2015-Aug-14 21:29N 36°30' E 027°48'255 9.9
2015-Aug-13 19:33N 34°38' E 032°31'1111.1
2015-Aug-13 18:34N 34°34' E 032°44'1110.9
2015-Aug-13 17:34N 34°31' E 032°56'8 8.3
2015-Aug-13 16:34N 34°37' E 033°04'3 3.4
2015-Aug-13 15:33N 34°40' E 033°04'0 0.0
2015-Aug-13 14:30N 34°40' E 033°04'0 0.0
2015-Aug-13 13:33N 34°40' E 033°04'0 0.0
2015-Aug-13 12:33N 34°40' E 033°04'0 0.0
2015-Aug-13 11:33N 34°40' E 033°04'0 0.0
2015-Aug-13 10:33N 34°40' E 033°04'0 0.0
2015-Aug-13 09:33N 34°40' E 033°04'0 0.0
2015-Aug-13 08:33N 34°40' E 033°04'0 0.0
2015-Aug-13 07:33N 34°40' E 033°04'0 0.0
2015-Aug-13 06:33N 34°40' E 033°04'0 0.0
2015-Aug-13 05:33N 34°40' E 033°04'0 0.0
2015-Aug-13 04:33N 34°40' E 033°04'0 0.0
2015-Aug-13 03:33N 34°40' E 033°04'0 0.0
2015-Aug-13 02:33N 34°40' E 033°04'0 0.0
2015-Aug-13 01:33N 34°40' E 033°04'0 0.0
2015-Aug-13 00:33N 34°40' E 033°04'0 0.0
2015-Aug-12 23:33N 34°40' E 033°04'0 0.0
2015-Aug-12 22:33N 34°40' E 033°04'0 0.0
2015-Aug-12 21:33N 34°40' E 033°04'0 0.1
2015-Aug-12 20:33N 34°40' E 033°04'0 0.0
2015-Aug-12 19:33N 34°40' E 033°04'0 0.0
2015-Aug-12 18:33N 34°40' E 033°04'0 0.0
2015-Aug-12 17:33N 34°40' E 033°04'0 0.0
2015-Aug-12 16:33N 34°40' E 033°04'0 0.0
2015-Aug-12 15:33N 34°40' E 033°04'0 0.0
2015-Aug-12 14:33N 34°40' E 033°04'0 0.0
2015-Aug-12 13:33N 34°40' E 033°04'0 0.0
2015-Aug-12 12:33N 34°40' E 033°04'0 0.0
2015-Aug-12 11:33N 34°40' E 033°04'0 0.0
2015-Aug-12 10:33N 34°40' E 033°04'0 0.0
2015-Aug-12 09:33N 34°40' E 033°04'0 0.0
2015-Aug-12 08:33N 34°40' E 033°04'0 0.0
2015-Aug-12 07:30N 34°40' E 033°04'0 0.0
2015-Aug-12 06:33N 34°40' E 033°04'0 0.0
2015-Aug-12 05:33N 34°40' E 033°04'0 0.0
2015-Aug-12 04:33N 34°40' E 033°04'0 0.0
2015-Aug-12 03:33N 34°40' E 033°04'0 0.0
2015-Aug-12 02:33N 34°40' E 033°04'0 0.0
2015-Aug-12 01:30N 34°40' E 033°04'0 0.0
2015-Aug-12 00:33N 34°40' E 033°04'0 0.0
2015-Aug-11 23:30N 34°40' E 033°04'0 0.0
2015-Aug-11 22:33N 34°40' E 033°04'0 0.0
2015-Aug-11 21:33N 34°40' E 033°04'0 0.0
2015-Aug-11 20:33N 34°40' E 033°04'0 0.0
2015-Aug-11 19:33N 34°40' E 033°04'0 0.0
2015-Aug-11 18:33N 34°40' E 033°04'0 0.0
2015-Aug-11 17:33N 34°40' E 033°04'0 0.0
2015-Aug-11 16:30N 34°40' E 033°04'0 0.0
2015-Aug-11 15:33N 34°40' E 033°04'0 0.0
2015-Aug-11 14:33N 34°40' E 033°04'0 0.0
2015-Aug-11 13:33N 34°40' E 033°04'0 0.0
2015-Aug-11 12:33N 34°40' E 033°04'0 0.0
2015-Aug-11 11:30N 34°40' E 033°04'0 0.0
2015-Aug-11 10:33N 34°40' E 033°04'0 0.0
2015-Aug-11 09:33N 34°40' E 033°04'0 0.0
2015-Aug-11 08:33N 34°40' E 033°04'0 0.0
2015-Aug-11 07:33N 34°40' E 033°04'0 0.0
2015-Aug-11 06:33N 34°40' E 033°04'0 0.0
2015-Aug-11 05:30N 34°40' E 033°04'  

Dump ship's entire track history